• Join FlightAware (Why Join?)
  • Login
  • US Flag 
07:25AM EDT


 

Airport Tracker/Info


-or-


 

Live Flight TrackerFlight Track Log ✈ BER7688 ✈ 23-Apr-2013 ✈ LEPA / PMI - LEAS / OVD

Flight Track Log - Related Links

Times and Time Zones

All times are in EDT time to prevent confusion due to time zone crossing. See the BER7688 flight status page for this flight to view local times or setup timezone preferences in your user account.

Time Position Orientation Groundspeed Altitude Reporting Facility
EDT Latitude Longitude Course Direction KTS MPH feet Rate Location/Type
08:57AM 40.0541 1.7684 304° West  Level Estimated
08:58AM 40.1095 1.6597 304° West  Level Estimated
08:59AM 40.1647 1.5508 304° West  Level Estimated
09:00AM 40.2198 1.4418 304° West  Level Estimated
09:01AM 40.2748 1.3326 303° West  Level Estimated
09:02AM 40.3297 1.2232 303° West  Level Estimated
09:03AM 40.3845 1.1136 303° West  Level Estimated
09:04AM 40.4393 1.0038 303° West  Level Estimated
09:05AM 40.4939 0.8939 303° West  Level Estimated
09:06AM 40.5484 0.7837 303° West  Level Estimated
09:07AM 40.6028 0.6734 303° West  Level Estimated
09:08AM 40.6571 0.5630 303° West  Level Estimated
09:09AM 40.7112 0.4523 303° West  Level Estimated
09:10AM 40.7653 0.3415 303° West  Level Estimated
09:11AM 40.8193 0.2304 303° West  Level Estimated
09:12AM 40.8732 0.1192 303° West  Level Estimated
09:13AM 40.9269 0.0079 303° West  Level Estimated
09:14AM 40.9806 -0.1037 303° West  Level Estimated
09:15AM 41.0341 -0.2155 302° West  Level Estimated
09:16AM 41.0876 -0.3274 302° West  Level Estimated
09:17AM 41.1409 -0.4395 302° West  Level Estimated
09:18AM 41.1941 -0.5518 302° West  Level Estimated
09:19AM 41.2472 -0.6643 302° West  Level Estimated
09:20AM 41.3002 -0.7769 302° West  Level Estimated
09:21AM 41.3531 -0.8898 302° West  Level Estimated
09:22AM 41.4059 -1.0028 302° West  Level Estimated
09:23AM 41.4585 -1.1160 302° West  Level Estimated
09:24AM 41.5111 -1.2294 302° West  Level Estimated
09:25AM 41.5636 -1.3429 302° West  Level Estimated
09:26AM 41.6159 -1.4567 302° West  Level Estimated
09:27AM 41.6681 -1.5706 302° West  Level Estimated
09:28AM 41.7202 -1.6848 301° West  Level Estimated
09:29AM 41.7722 -1.7991 301° West  Level Estimated
09:30AM 41.8241 -1.9136 301° West  Level Estimated
09:31AM 41.8759 -2.0283 301° West  Level Estimated
09:32AM 41.9275 -2.1431 301° West  Level Estimated
09:33AM 41.9791 -2.2582 301° West  Level Estimated
09:34AM 42.0305 -2.3734 301° West  Level Estimated
09:35AM 42.0818 -2.4889 301° West  Level Estimated
09:36AM 42.1330 -2.6045 301° West  Level Estimated
09:37AM 42.1841 -2.7203 301° West  Level Estimated
09:38AM 42.2350 -2.8363 301° West  Level Estimated
09:39AM 42.2859 -2.9524 301° West  Level Estimated
09:40AM 42.3366 -3.0688 301° West  Level Estimated
09:41AM 42.3872 -3.1853 300° West  Level Estimated
09:42AM 42.4377 -3.3021 300° West  Level Estimated
09:43AM 42.4881 -3.4190 300° West  Level Estimated
09:44AM 42.5383 -3.5361 300° West  Level Estimated
09:45AM 42.5885 -3.6534 300° West  Level Estimated
09:46AM 42.6385 -3.7709 300° West  Level Estimated
09:47AM 42.6884 -3.8886 300° West  Level Estimated
09:48AM 42.7381 -4.0065 300° West  Level Estimated
09:49AM 42.7878 -4.1245 300° West  Level Estimated
09:50AM 42.8373 -4.2428 300° West  Level Estimated
09:51AM 42.8867 -4.3612 300° West  Level Estimated
09:52AM 42.9360 -4.4799 300° West  Level Estimated
09:53AM 42.9852 -4.5987 300° West  Level Estimated
09:54AM 43.0342 -4.7177 299° West  Level Estimated
09:55AM 43.0831 -4.8369 299° West  Level Estimated
09:56AM 43.1319 -4.9563 299° West  Level Estimated
09:57AM 43.1806 -5.0759 299° West  Level Estimated
09:58AM 43.2291 -5.1956 299° West  Level Estimated
09:59AM 43.2775 -5.3156 299° West  Level Estimated
10:00AM 43.3259 -5.4357 299° West  Level Estimated
10:01AM 43.3740 -5.5561 299° West  Level Estimated
10:02AM 43.4221 -5.6766 299° West  Level Estimated
10:03AM 43.4700 -5.7973 299° West  Level Estimated
10:04AM 43.5178 -5.9183 299° West  Level Estimated
10:05AM 43.5636 -6.0346 299° West  Level Estimated
10:06AM 43.5636 -6.0346 206° Southwest  Level Estimated
10:07AM 43.5636 -6.0346 206° Southwest  Level Estimated
10:08AM 43.5636 -6.0346 206° Southwest  Level Estimated
10:09AM 43.5636 -6.0346 206° Southwest  Level Estimated
10:10AM 43.5636 -6.0346 206° Southwest  Level Estimated
10:11AM 43.5636 -6.0346 206° Southwest  Level Estimated
10:12AM 43.5636 -6.0346 206° Southwest  Level Estimated
10:13AM 43.5636 -6.0346 206° Southwest  Level Estimated
10:14AM 43.5636 -6.0346 206° Southwest  Level Estimated
10:15AM 43.5636 -6.0346 206° Southwest  Level Estimated
10:16AM 43.5636 -6.0346 206° Southwest  Level Estimated
10:17AM 43.5636 -6.0346 206° Southwest  Level Estimated
10:18AM 43.5636 -6.0346 206° Southwest  Level Estimated
10:19AM 43.5636 -6.0346 206° Southwest  Level Estimated
10:20AM 43.5636 -6.0346 206° Southwest  Level Estimated
10:21AM 43.5636 -6.0346 206° Southwest  Level Estimated